Wetterdaten: Donnerstag, 10.06.2010
Datum Zeit Temp. A. Feuchte A. Luftdruck Regen Wind Richtung Richtung Sonnenschein UV Solar Windben
10.06.2010 00:00 21,0 C 74 % 1003,7 hPa 0,0 mm 0,0 km/h (0 Bft) N 0 0 min 0 UV-I 0 W/m 0,0 km/h (0 Bft)
10.06.2010 00:10 21,0 C 74 % 1003,7 hPa 0,0 mm 0,0 km/h (0 Bft) N 0 0 min 0 UV-I 0 W/m 0,0 km/h (0 Bft)
10.06.2010 00:20 21,0 C 75 % 1003,7 hPa 0,0 mm 0,0 km/h (0 Bft) O 90 0 min 0 UV-I 0 W/m 1,0 km/h (0 Bft)
10.06.2010 00:30 21,0 C 76 % 1003,7 hPa 0,0 mm 0,0 km/h (0 Bft) O 90 0 min 0 UV-I 0 W/m 4,0 km/h (1 Bft)
10.06.2010 00:40 20,0 C 75 % 1003,7 hPa 0,0 mm 0,0 km/h (0 Bft) O-NO 67 0 min 0 UV-I 0 W/m 4,0 km/h (1 Bft)
10.06.2010 00:50 20,0 C 74 % 1004,2 hPa 0,3 mm 1,0 km/h (0 Bft) S 180 0 min 0 UV-I 0 W/m 11,0 km/h (2 Bft)
10.06.2010 01:00 20,0 C 81 % 1004,2 hPa 0,8 mm 1,0 km/h (0 Bft) S-SO 157 0 min 0 UV-I 0 W/m 6,0 km/h (2 Bft)
10.06.2010 01:10 19,0 C 84 % 1004,2 hPa 0,3 mm 1,0 km/h (0 Bft) SO 135 0 min 0 UV-I 0 W/m 8,0 km/h (2 Bft)
10.06.2010 01:20 19,0 C 87 % 1005,9 hPa 0,3 mm 0,0 km/h (0 Bft) SO 135 0 min 0 UV-I 0 W/m 4,0 km/h (1 Bft)
10.06.2010 01:30 18,0 C 88 % 1005,9 hPa 0,3 mm 0,0 km/h (0 Bft) S-SW 202 0 min 0 UV-I 0 W/m 4,0 km/h (1 Bft)
10.06.2010 01:40 18,0 C 88 % 1005,9 hPa 0,3 mm 1,0 km/h (0 Bft) S-SW 202 0 min 0 UV-I 0 W/m 9,0 km/h (2 Bft)
10.06.2010 01:50 18,0 C 89 % 1005,9 hPa 1,0 mm 1,0 km/h (0 Bft) S 180 0 min 0 UV-I 0 W/m 9,0 km/h (2 Bft)
10.06.2010 02:00 18,0 C 89 % 1005,0 hPa 1,3 mm 1,0 km/h (0 Bft) S 180 0 min 0 UV-I 0 W/m 11,0 km/h (2 Bft)
10.06.2010 02:10 17,0 C 90 % 1005,0 hPa 1,0 mm 0,0 km/h (0 Bft) S-SO 157 0 min 0 UV-I 0 W/m 4,0 km/h (1 Bft)
10.06.2010 02:20 17,0 C 90 % 1004,5 hPa 1,5 mm 0,0 km/h (0 Bft) S 180 0 min 0 UV-I 0 W/m 1,0 km/h (0 Bft)
10.06.2010 02:30 17,0 C 91 % 1005,0 hPa 1,3 mm 1,0 km/h (0 Bft) W 270 0 min 0 UV-I 0 W/m 6,0 km/h (2 Bft)
10.06.2010 02:40 17,0 C 91 % 1005,0 hPa 3,0 mm 1,0 km/h (0 Bft) W 270 0 min 0 UV-I 0 W/m 8,0 km/h (2 Bft)
10.06.2010 02:50 17,0 C 91 % 1005,6 hPa 2,5 mm 1,0 km/h (0 Bft) W 270 0 min 0 UV-I 0 W/m 6,0 km/h (2 Bft)
10.06.2010 03:00 17,0 C 91 % 1005,2 hPa 1,0 mm 3,0 km/h (1 Bft) W-NW 292 0 min 0 UV-I 0 W/m 9,0 km/h (2 Bft)
10.06.2010 03:10 17,0 C 92 % 1005,8 hPa 1,5 mm 1,0 km/h (0 Bft) S-SW 202 0 min 0 UV-I 0 W/m 8,0 km/h (2 Bft)
10.06.2010 03:20 17,0 C 92 % 1005,8 hPa 3,0 mm 1,0 km/h (0 Bft) S 180 0 min 0 UV-I 0 W/m 8,0 km/h (2 Bft)
10.06.2010 03:30 16,0 C 92 % 1005,8 hPa 3,3 mm 0,0 km/h (0 Bft) S 180 0 min 0 UV-I 0 W/m 3,0 km/h (1 Bft)
10.06.2010 03:40 16,0 C 93 % 1004,4 hPa 1,0 mm 0,0 km/h (0 Bft) S 180 0 min 0 UV-I 0 W/m 1,0 km/h (0 Bft)
10.06.2010 03:50 16,0 C 93 % 1003,1 hPa 0,3 mm 0,0 km/h (0 Bft) S 180 0 min 0 UV-I 0 W/m 1,0 km/h (0 Bft)
10.06.2010 04:00 16,0 C 93 % 1003,0 hPa 0,3 mm 0,0 km/h (0 Bft) N 0 0 min 0 UV-I 0 W/m 0,0 km/h (0 Bft)
10.06.2010 04:10 16,0 C 93 % 1003,0 hPa 0,0 mm 0,0 km/h (0 Bft) S 180 0 min 0 UV-I 0 W/m 4,0 km/h (1 Bft)
10.06.2010 04:20 16,0 C 93 % 1002,6 hPa 0,0 mm 1,0 km/h (0 Bft) O-NO 67 0 min 0 UV-I 0 W/m 8,0 km/h (2 Bft)
10.06.2010 04:30 16,0 C 93 % 1000,9 hPa 0,0 mm 4,0 km/h (1 Bft) O-NO 67 0 min 0 UV-I 0 W/m 17,0 km/h (3 Bft)
10.06.2010 04:40 16,0 C 93 % 1002,5 hPa 0,3 mm 4,0 km/h (1 Bft) O-NO 67 0 min 0 UV-I 0 W/m 16,0 km/h (3 Bft)
10.06.2010 04:50 16,0 C 93 % 1002,6 hPa 0,0 mm 1,0 km/h (0 Bft) O-NO 67 0 min 0 UV-I 0 W/m 4,0 km/h (1 Bft)
10.06.2010 05:00 16,0 C 94 % 1001,6 hPa 0,0 mm 0,0 km/h (0 Bft) O-NO 67 0 min 0 UV-I 0 W/m 3,0 km/h (1 Bft)
10.06.2010 05:10 16,0 C 94 % 1002,0 hPa 0,0 mm 0,0 km/h (0 Bft) O-NO 67 0 min 0 UV-I 0 W/m 1,0 km/h (0 Bft)
10.06.2010 05:20 16,0 C 94 % 1001,9 hPa 0,0 mm 0,0 km/h (0 Bft) O-NO 67 0 min 0 UV-I 5 W/m 3,0 km/h (1 Bft)
10.06.2010 05:30 16,0 C 94 % 1002,9 hPa 0,0 mm 0,0 km/h (0 Bft) O-NO 67 0 min 0 UV-I 14 W/m 3,0 km/h (1 Bft)
10.06.2010 05:40 16,0 C 94 % 1004,5 hPa 0,0 mm 0,0 km/h (0 Bft) O-NO 67 0 min 0 UV-I 21 W/m 1,0 km/h (0 Bft)
10.06.2010 05:50 16,0 C 94 % 1004,7 hPa 0,0 mm 0,0 km/h (0 Bft) O 90 0 min 0 UV-I 25 W/m 4,0 km/h (1 Bft)
10.06.2010 06:00 16,0 C 94 % 1004,7 hPa 0,0 mm 0,0 km/h (0 Bft) O 90 0 min 0 UV-I 25 W/m 1,0 km/h (0 Bft)
10.06.2010 06:10 16,0 C 94 % 1004,6 hPa 0,0 mm 0,0 km/h (0 Bft) O 90 0 min 0 UV-I 23 W/m 1,0 km/h (0 Bft)
10.06.2010 06:20 16,0 C 94 % 1004,4 hPa 0,0 mm 0,0 km/h (0 Bft) O 90 0 min 0 UV-I 46 W/m 1,0 km/h (0 Bft)
10.06.2010 06:30 16,0 C 94 % 1004,5 hPa 0,0 mm 0,0 km/h (0 Bft) O 90 0 min 0 UV-I 81 W/m 1,0 km/h (0 Bft)
10.06.2010 06:40 16,0 C 94 % 1004,5 hPa 0,0 mm 0,0 km/h (0 Bft) O 90 10 min 0 UV-I 188 W/m 1,0 km/h (0 Bft)
10.06.2010 06:50 17,0 C 94 % 1004,5 hPa 0,0 mm 0,0 km/h (0 Bft) O 90 10 min 1 UV-I 199 W/m 3,0 km/h (1 Bft)
10.06.2010 07:00 17,0 C 94 % 1004,4 hPa 0,0 mm 1,0 km/h (0 Bft) O 90 10 min 1 UV-I 144 W/m 6,0 km/h (2 Bft)
10.06.2010 07:10 17,0 C 94 % 1004,0 hPa 0,0 mm 0,0 km/h (0 Bft) O-SO 112 10 min 1 UV-I 156 W/m 3,0 km/h (1 Bft)
10.06.2010 07:20 17,0 C 94 % 1004,0 hPa 0,0 mm 1,0 km/h (0 Bft) O-SO 112 10 min 1 UV-I 287 W/m 3,0 km/h (1 Bft)
10.06.2010 07:30 17,0 C 94 % 1004,0 hPa 0,0 mm 1,0 km/h (0 Bft) O-SO 112 10 min 1 UV-I 276 W/m 4,0 km/h (1 Bft)
10.06.2010 07:40 18,0 C 93 % 1004,6 hPa 0,0 mm 0,0 km/h (0 Bft) O-SO 112 10 min 1 UV-I 302 W/m 4,0 km/h (1 Bft)
10.06.2010 07:50 18,0 C 93 % 1002,2 hPa 0,0 mm 1,0 km/h (0 Bft) SO 135 10 min 1 UV-I 359 W/m 6,0 km/h (2 Bft)
10.06.2010 08:00 18,0 C 92 % 1003,0 hPa 0,0 mm 4,0 km/h (1 Bft) O-SO 115 0 min 1 UV-I 200 W/m 11,0 km/h (2 Bft)
10.06.2010 08:10 18,0 C 92 % 1002,0 hPa 0,0 mm 1,0 km/h (0 Bft) O-SO 112 10 min 1 UV-I 258 W/m 9,0 km/h (2 Bft)
10.06.2010 08:20 18,0 C 90 % 1003,8 hPa 0,0 mm 3,0 km/h (1 Bft) SO 135 0 min 1 UV-I 229 W/m 12,0 km/h (2 Bft)
10.06.2010 08:30 18,0 C 90 % 1002,4 hPa 0,0 mm 3,0 km/h (1 Bft) O-SO 112 10 min 2 UV-I 443 W/m 12,0 km/h (2 Bft)
10.06.2010 08:40 19,0 C 88 % 1004,6 hPa 0,0 mm 3,0 km/h (1 Bft) O-SO 112 10 min 2 UV-I 483 W/m 12,0 km/h (2 Bft)
10.06.2010 08:50 19,0 C 88 % 1004,8 hPa 0,0 mm 1,0 km/h (0 Bft) S-SO 157 10 min 2 UV-I 376 W/m 8,0 km/h (2 Bft)
10.06.2010 09:00 19,0 C 87 % 1003,9 hPa 0,0 mm 1,0 km/h (0 Bft) SO 135 10 min 2 UV-I 406 W/m 11,0 km/h (2 Bft)
10.06.2010 09:10 19,0 C 86 % 1003,0 hPa 0,0 mm 3,0 km/h (1 Bft) S-SO 157 10 min 3 UV-I 555 W/m 8,0 km/h (2 Bft)
10.06.2010 09:20 19,0 C 86 % 1004,0 hPa 0,0 mm 3,0 km/h (1 Bft) O-SO 112 10 min 2 UV-I 427 W/m 8,0 km/h (2 Bft)
10.06.2010 09:30 20,0 C 86 % 1004,7 hPa 0,0 mm 1,0 km/h (0 Bft) S-SW 202 10 min 2 UV-I 448 W/m 8,0 km/h (2 Bft)
10.06.2010 09:40 20,0 C 83 % 1003,5 hPa 0,0 mm 1,0 km/h (0 Bft) O-SO 112 10 min 3 UV-I 640 W/m 9,0 km/h (2 Bft)
10.06.2010 09:50 21,0 C 82 % 1003,1 hPa 0,0 mm 1,0 km/h (0 Bft) O-SO 112 10 min 3 UV-I 541 W/m 6,0 km/h (2 Bft)
10.06.2010 10:00 21,0 C 80 % 1004,5 hPa 0,0 mm 1,0 km/h (0 Bft) SO 135 10 min 3 UV-I 594 W/m 11,0 km/h (2 Bft)
10.06.2010 10:10 21,0 C 78 % 1005,0 hPa 0,0 mm 3,0 km/h (1 Bft) S-SW 202 10 min 5 UV-I 853 W/m 8,0 km/h (2 Bft)
10.06.2010 10:20 22,0 C 76 % 1004,6 hPa 0,0 mm 3,0 km/h (1 Bft) S-SO 157 10 min 5 UV-I 817 W/m 9,0 km/h (2 Bft)
10.06.2010 10:30 22,0 C 78 % 1005,1 hPa 0,0 mm 1,0 km/h (0 Bft) S 180 10 min 4 UV-I 624 W/m 6,0 km/h (2 Bft)
10.06.2010 10:40 22,0 C 75 % 1003,9 hPa 0,0 mm 1,0 km/h (0 Bft) S-SW 202 10 min 4 UV-I 693 W/m 6,0 km/h (2 Bft)
10.06.2010 10:50 22,0 C 74 % 1003,4 hPa 0,0 mm 1,0 km/h (0 Bft) S 180 10 min 3 UV-I 411 W/m 6,0 km/h (2 Bft)
10.06.2010 11:00 22,0 C 74 % 1004,8 hPa 0,0 mm 0,0 km/h (0 Bft) S 180 10 min 3 UV-I 461 W/m 6,0 km/h (2 Bft)
10.06.2010 11:10 23,0 C 74 % 1004,4 hPa 0,0 mm 0,0 km/h (0 Bft) SW 225 0 min 3 UV-I 394 W/m 3,0 km/h (1 Bft)
10.06.2010 11:20 22,0 C 76 % 1004,8 hPa 0,0 mm 0,0 km/h (0 Bft) SW 225 0 min 2 UV-I 283 W/m 3,0 km/h (1 Bft)
10.06.2010 11:30 22,0 C 78 % 1004,0 hPa 0,0 mm 0,0 km/h (0 Bft) SW 225 0 min 3 UV-I 316 W/m 1,0 km/h (0 Bft)
10.06.2010 11:40 23,0 C 76 % 1004,0 hPa 0,0 mm 0,0 km/h (0 Bft) SW 225 0 min 2 UV-I 288 W/m 3,0 km/h (1 Bft)
10.06.2010 11:50 23,0 C 76 % 1004,0 hPa 0,0 mm 0,0 km/h (0 Bft) SW 225 0 min 3 UV-I 306 W/m 3,0 km/h (1 Bft)
10.06.2010 12:00 22,0 C 73 % 1003,5 hPa 0,0 mm 0,0 km/h (0 Bft) SW 225 10 min 4 UV-I 517 W/m 3,0 km/h (1 Bft)
10.06.2010 12:10 23,0 C 71 % 1003,7 hPa 0,0 mm 0,0 km/h (0 Bft) N-NW 337 10 min 6 UV-I 795 W/m 6,0 km/h (2 Bft)
10.06.2010 12:20 23,0 C 73 % 1004,0 hPa 0,0 mm 0,0 km/h (0 Bft) N-NW 337 10 min 5 UV-I 554 W/m 4,0 km/h (1 Bft)
10.06.2010 12:30 23,0 C 70 % 1004,5 hPa 0,0 mm 1,0 km/h (0 Bft) N-NW 337 10 min 7 UV-I 847 W/m 4,0 km/h (1 Bft)
10.06.2010 12:40 24,0 C 68 % 1005,0 hPa 0,0 mm 1,0 km/h (0 Bft) N 360 10 min 7 UV-I 962 W/m 8,0 km/h (2 Bft)
10.06.2010 12:50 24,0 C 66 % 1005,0 hPa 0,0 mm 1,0 km/h (0 Bft) N-NO 22 10 min 8 UV-I 967 W/m 6,0 km/h (2 Bft)
10.06.2010 13:00 24,0 C 60 % 1002,8 hPa 0,0 mm 1,0 km/h (0 Bft) N-NO 22 10 min 7 UV-I 679 W/m 6,0 km/h (2 Bft)
10.06.2010 13:10 24,0 C 64 % 1003,7 hPa 0,0 mm 1,0 km/h (0 Bft) W-NW 292 10 min 4 UV-I 485 W/m 8,0 km/h (2 Bft)
10.06.2010 13:20 24,0 C 62 % 1004,0 hPa 0,0 mm 0,0 km/h (0 Bft) W 270 10 min 5 UV-I 529 W/m 1,0 km/h (0 Bft)
10.06.2010 13:30 24,0 C 62 % 1004,0 hPa 0,0 mm 0,0 km/h (0 Bft) W 270 0 min 4 UV-I 367 W/m 1,0 km/h (0 Bft)
10.06.2010 13:40 24,0 C 67 % 1004,4 hPa 0,0 mm 0,0 km/h (0 Bft) W 270 0 min 2 UV-I 220 W/m 1,0 km/h (0 Bft)
10.06.2010 13:50 23,0 C 63 % 1003,6 hPa 0,0 mm 0,0 km/h (0 Bft) W 270 0 min 2 UV-I 197 W/m 3,0 km/h (1 Bft)
10.06.2010 14:00 23,0 C 66 % 1004,5 hPa 0,0 mm 1,0 km/h (0 Bft) W-NW 292 0 min 3 UV-I 397 W/m 6,0 km/h (2 Bft)
10.06.2010 14:10 24,0 C 62 % 1004,5 hPa 0,0 mm 0,0 km/h (0 Bft) W-NW 292 10 min 9 UV-I 803 W/m 4,0 km/h (1 Bft)
10.06.2010 14:20 25,0 C 61 % 1004,0 hPa 0,0 mm 1,0 km/h (0 Bft) W-NW 292 10 min 8 UV-I 1164 W/m 6,0 km/h (2 Bft)
10.06.2010 14:30 27,0 C 64 % 1004,0 hPa 0,0 mm 3,0 km/h (1 Bft) O 90 10 min 8 UV-I 1188 W/m 9,0 km/h (2 Bft)
10.06.2010 14:40 27,0 C 60 % 1004,0 hPa 0,0 mm 3,0 km/h (1 Bft) O 90 10 min 8 UV-I 1013 W/m 11,0 km/h (2 Bft)
10.06.2010 14:50 27,0 C 59 % 1004,0 hPa 0,0 mm 3,0 km/h (1 Bft) SO 135 10 min 7 UV-I 770 W/m 11,0 km/h (2 Bft)
10.06.2010 15:00 27,0 C 61 % 1004,0 hPa 0,0 mm 3,0 km/h (1 Bft) O 90 10 min 6 UV-I 624 W/m 11,0 km/h (2 Bft)
10.06.2010 15:10 27,0 C 58 % 1004,0 hPa 0,0 mm 1,0 km/h (0 Bft) SO 135 10 min 6 UV-I 724 W/m 6,0 km/h (2 Bft)
10.06.2010 15:20 28,0 C 58 % 1004,0 hPa 0,0 mm 3,0 km/h (1 Bft) O 90 10 min 7 UV-I 1132 W/m 11,0 km/h (2 Bft)
10.06.2010 15:30 28,0 C 51 % 1004,0 hPa 0,0 mm 1,0 km/h (0 Bft) O-SO 112 10 min 7 UV-I 510 W/m 9,0 km/h (2 Bft)
10.06.2010 15:40 28,0 C 54 % 1004,2 hPa 0,0 mm 1,0 km/h (0 Bft) W 270 10 min 6 UV-I 585 W/m 8,0 km/h (2 Bft)
10.06.2010 15:50 27,0 C 53 % 1004,5 hPa 0,0 mm 3,0 km/h (1 Bft) W 270 10 min 4 UV-I 545 W/m 11,0 km/h (2 Bft)
10.06.2010 16:00 26,0 C 56 % 1004,3 hPa 0,0 mm 0,5 km/h (0 Bft) W 269 0 min 3 UV-I 404 W/m 1,0 km/h (0 Bft)
10.06.2010 16:10 27,0 C 56 % 1004,0 hPa 0,0 mm 0,0 km/h (0 Bft) W-NW 292 10 min 5 UV-I 990 W/m 6,0 km/h (2 Bft)
10.06.2010 16:20 28,0 C 52 % 1004,0 hPa 0,0 mm 1,0 km/h (0 Bft) W-NW 292 10 min 5 UV-I 995 W/m 4,0 km/h (1 Bft)
10.06.2010 16:30 28,0 C 52 % 1004,0 hPa 0,0 mm 1,0 km/h (0 Bft) NW 315 10 min 5 UV-I 849 W/m 8,0 km/h (2 Bft)
10.06.2010 16:40 27,0 C 54 % 1004,4 hPa 0,0 mm 1,0 km/h (0 Bft) N-NW 337 10 min 4 UV-I 564 W/m 4,0 km/h (1 Bft)
10.06.2010 16:50 27,0 C 57 % 1002,6 hPa 0,0 mm 0,0 km/h (0 Bft) N-NW 337 10 min 5 UV-I 733 W/m 4,0 km/h (1 Bft)
10.06.2010 17:00 28,0 C 53 % 1002,6 hPa 0,0 mm 1,0 km/h (0 Bft) N-NW 337 10 min 4 UV-I 642 W/m 6,0 km/h (2 Bft)
10.06.2010 17:10 27,0 C 55 % 1003,5 hPa 0,0 mm 0,0 km/h (0 Bft) N-NW 337 0 min 2 UV-I 338 W/m 3,0 km/h (1 Bft)
10.06.2010 17:20 27,0 C 58 % 1002,5 hPa 0,0 mm 1,0 km/h (0 Bft) N-NW 337 0 min 2 UV-I 285 W/m 4,0 km/h (1 Bft)
10.06.2010 17:30 27,0 C 60 % 1003,3 hPa 0,0 mm 3,0 km/h (1 Bft) O-NO 67 0 min 1 UV-I 183 W/m 11,0 km/h (2 Bft)
10.06.2010 17:40 26,0 C 59 % 1003,3 hPa 0,0 mm 1,0 km/h (0 Bft) O 90 0 min 1 UV-I 179 W/m 8,0 km/h (2 Bft)
10.06.2010 17:50 26,0 C 60 % 1002,9 hPa 0,0 mm 3,0 km/h (1 Bft) O-SO 112 0 min 1 UV-I 153 W/m 9,0 km/h (2 Bft)
10.06.2010 18:00 26,0 C 62 % 1003,3 hPa 0,0 mm 1,0 km/h (0 Bft) O-SO 112 0 min 1 UV-I 241 W/m 11,0 km/h (2 Bft)
10.06.2010 18:10 26,0 C 60 % 1002,1 hPa 0,0 mm 3,0 km/h (1 Bft) O-SO 112 10 min 2 UV-I 353 W/m 11,0 km/h (2 Bft)
10.06.2010 18:20 26,0 C 61 % 1002,8 hPa 0,0 mm 1,0 km/h (0 Bft) O 90 0 min 1 UV-I 218 W/m 9,0 km/h (2 Bft)
10.06.2010 18:30 26,0 C 64 % 1002,7 hPa 0,0 mm 3,0 km/h (1 Bft) O-NO 67 0 min 1 UV-I 178 W/m 11,0 km/h (2 Bft)
10.06.2010 18:40 26,0 C 65 % 1000,7 hPa 0,0 mm 1,0 km/h (0 Bft) O-NO 67 0 min 1 UV-I 160 W/m 4,0 km/h (1 Bft)
10.06.2010 18:50 26,0 C 65 % 1001,5 hPa 0,0 mm 1,0 km/h (0 Bft) O-NO 67 0 min 1 UV-I 137 W/m 6,0 km/h (2 Bft)
10.06.2010 19:00 25,0 C 66 % 1000,3 hPa 0,0 mm 1,0 km/h (0 Bft) O-NO 67 0 min 1 UV-I 137 W/m 4,0 km/h (1 Bft)
10.06.2010 19:10 25,0 C 67 % 1000,3 hPa 0,0 mm 1,0 km/h (0 Bft) O-NO 67 0 min 1 UV-I 118 W/m 6,0 km/h (2 Bft)
10.06.2010 19:20 25,0 C 68 % 1000,8 hPa 0,0 mm 0,0 km/h (0 Bft) O-NO 67 0 min 1 UV-I 76 W/m 6,0 km/h (2 Bft)
10.06.2010 19:30 25,0 C 69 % 1003,9 hPa 0,0 mm 0,0 km/h (0 Bft) O-NO 67 0 min 0 UV-I 60 W/m 1,0 km/h (0 Bft)
10.06.2010 19:40 24,0 C 70 % 1003,4 hPa 0,0 mm 0,0 km/h (0 Bft) O-NO 67 0 min 0 UV-I 47 W/m 1,0 km/h (0 Bft)
10.06.2010 19:50 24,0 C 70 % 1004,0 hPa 0,0 mm 0,0 km/h (0 Bft) O-NO 67 0 min 1 UV-I 70 W/m 1,0 km/h (0 Bft)
10.06.2010 20:00 24,0 C 70 % 1004,0 hPa 0,0 mm 0,0 km/h (0 Bft) O-NO 67 10 min 1 UV-I 141 W/m 3,0 km/h (1 Bft)
10.06.2010 20:10 25,0 C 70 % 1004,0 hPa 0,0 mm 0,0 km/h (0 Bft) O-NO 67 10 min 1 UV-I 146 W/m 1,0 km/h (0 Bft)
10.06.2010 20:20 24,0 C 71 % 1004,0 hPa 0,0 mm 0,0 km/h (0 Bft) O-NO 67 0 min 0 UV-I 60 W/m 3,0 km/h (1 Bft)
10.06.2010 20:30 24,0 C 72 % 1004,0 hPa 0,0 mm 0,0 km/h (0 Bft) O-NO 67 0 min 0 UV-I 25 W/m 1,0 km/h (0 Bft)
10.06.2010 20:40 24,0 C 74 % 1004,0 hPa 0,0 mm 0,0 km/h (0 Bft) O-NO 67 0 min 0 UV-I 30 W/m 1,0 km/h (0 Bft)
10.06.2010 20:50 23,0 C 75 % 1004,0 hPa 0,0 mm 0,0 km/h (0 Bft) O-NO 67 0 min 0 UV-I 26 W/m 4,0 km/h (1 Bft)
10.06.2010 21:00 23,0 C 76 % 1003,6 hPa 0,0 mm 0,0 km/h (0 Bft) O-NO 67 0 min 0 UV-I 23 W/m 3,0 km/h (1 Bft)
10.06.2010 21:10 23,0 C 76 % 1004,0 hPa 0,0 mm 0,0 km/h (0 Bft) O-NO 67 0 min 0 UV-I 18 W/m 4,0 km/h (1 Bft)
10.06.2010 21:20 22,0 C 78 % 1004,0 hPa 0,0 mm 0,0 km/h (0 Bft) O-NO 67 0 min 0 UV-I 12 W/m 3,0 km/h (1 Bft)
10.06.2010 21:30 22,0 C 78 % 1004,0 hPa 0,0 mm 0,0 km/h (0 Bft) O-NO 67 0 min 0 UV-I 7 W/m 4,0 km/h (1 Bft)
10.06.2010 21:40 22,0 C 77 % 1004,0 hPa 0,0 mm 0,0 km/h (0 Bft) O-NO 67 0 min 0 UV-I 0 W/m 3,0 km/h (1 Bft)
10.06.2010 21:50 22,0 C 76 % 1004,0 hPa 0,0 mm 0,0 km/h (0 Bft) O-NO 67 0 min 0 UV-I 0 W/m 6,0 km/h (2 Bft)
10.06.2010 22:00 21,0 C 77 % 1004,0 hPa 0,0 mm 0,0 km/h (0 Bft) O-NO 67 0 min 0 UV-I 0 W/m 1,0 km/h (0 Bft)
10.06.2010 22:10 21,0 C 78 % 1004,0 hPa 0,0 mm 0,0 km/h (0 Bft) O-NO 67 0 min 0 UV-I 0 W/m 1,0 km/h (0 Bft)
10.06.2010 22:20 21,0 C 78 % 1003,1 hPa 0,0 mm 0,0 km/h (0 Bft) N 0 0 min 0 UV-I 0 W/m 0,0 km/h (0 Bft)
10.06.2010 22:30 21,0 C 80 % 1004,0 hPa 0,0 mm 0,0 km/h (0 Bft) N 0 0 min 0 UV-I 0 W/m 0,0 km/h (0 Bft)
10.06.2010 22:40 21,0 C 80 % 1003,5 hPa 0,0 mm 0,0 km/h (0 Bft) O-NO 67 0 min 0 UV-I 0 W/m 1,0 km/h (0 Bft)
10.06.2010 22:50 21,0 C 82 % 1003,3 hPa 0,0 mm 0,0 km/h (0 Bft) N 0 0 min 0 UV-I 0 W/m 0,0 km/h (0 Bft)
10.06.2010 23:00 20,0 C 83 % 1002,0 hPa 0,0 mm 0,0 km/h (0 Bft) N 0 0 min 0 UV-I 0 W/m 0,0 km/h (0 Bft)
10.06.2010 23:10 20,0 C 83 % 1001,5 hPa 0,0 mm 0,0 km/h (0 Bft) N 0 0 min 0 UV-I 0 W/m 0,0 km/h (0 Bft)
10.06.2010 23:20 20,0 C 84 % 1003,1 hPa 0,0 mm 0,0 km/h (0 Bft) O-NO 65 0 min 0 UV-I 0 W/m 0,0 km/h (0 Bft)
10.06.2010 23:30 20,0 C 84 % 1003,1 hPa 0,0 mm 0,0 km/h (0 Bft) O-NO 66 0 min 0 UV-I 0 W/m 1,0 km/h (0 Bft)
10.06.2010 23:40 20,0 C 86 % 1002,3 hPa 0,0 mm 0,0 km/h (0 Bft) O-NO 66 0 min 0 UV-I 0 W/m 1,0 km/h (0 Bft)
10.06.2010 23:50 20,0 C 85 % 1003,1 hPa 0,0 mm 0,0 km/h (0 Bft) O-NO 65 0 min 0 UV-I 0 W/m 1,0 km/h (0 Bft)
_ Min-Zeit 03:30 15:30 19:00 - 00:00 - - - - - 00:00
Minimum _ 16,0 C 51 % 1000,3 hPa - 0,0 km/h (0 Bft) - - - - - 0,0 km/h (0 Bft)
_ Max-Zeit 15:30 05:00 01:20 03:30 04:30 - - 06:40 14:10 14:30 04:30
Maximum _ 29,0 C 94 % 1005,9 hPa 3,3 mm 4,0 km/h
O-NO (1 Bft)
- - 10 min 9 UV-I 1188 W/m 17,0 km/h
NO (3 Bft)
Durchschnitt _ 21,4 C 77 % 1003,8 hPa #24,4 mm 0,8 km/h (0 Bft) O-SO - #9:00 h 3 UV-I 392 W/m 5,1 km/h (1 Bft)